createdAt,value
2023-07-30T00:00:57.990Z,1.40
2023-07-30T00:02:49.529Z,1.40
2023-07-30T00:04:40.949Z,1.30
2023-07-30T00:06:32.674Z,1.50
2023-07-30T00:08:24.967Z,1.70
2023-07-30T00:10:16.629Z,1.70
2023-07-30T00:12:09.233Z,1.60
2023-07-30T00:14:00.822Z,1.50
2023-07-30T00:15:52.612Z,1.60
2023-07-30T00:17:44.055Z,1.40
2023-07-30T00:19:36.639Z,1.50
2023-07-30T00:21:27.808Z,1.40
2023-07-30T00:23:19.063Z,1.60
2023-07-30T00:25:10.466Z,1.70
2023-07-30T00:27:02.093Z,1.30
2023-07-30T00:28:53.625Z,1.60
2023-07-30T00:30:46.277Z,1.30
2023-07-30T00:32:43.194Z,2.40
2023-07-30T00:34:36.900Z,1.50
2023-07-30T00:36:28.434Z,1.90
2023-07-30T00:38:20.363Z,2.10
2023-07-30T00:40:12.500Z,2.50
2023-07-30T00:42:04.184Z,3.80
2023-07-30T00:43:55.663Z,3.00
2023-07-30T00:45:46.788Z,2.80
2023-07-30T00:47:39.521Z,3.30
2023-07-30T00:51:22.255Z,3.50
2023-07-30T00:53:15.582Z,2.90
2023-07-30T00:55:08.395Z,3.00
2023-07-30T00:56:59.652Z,3.10
2023-07-30T00:58:51.575Z,2.70
2023-07-30T01:00:43.392Z,2.80
2023-07-30T01:02:35.173Z,2.80
2023-07-30T01:04:26.989Z,3.00
2023-07-30T01:06:19.154Z,3.10
2023-07-30T01:08:11.537Z,3.20
2023-07-30T01:10:04.771Z,5.20
2023-07-30T01:11:56.590Z,6.00
2023-07-30T01:13:48.862Z,10.00
2023-07-30T01:15:40.717Z,12.00
2023-07-30T01:17:32.224Z,13.50
2023-07-30T01:19:23.966Z,12.50
2023-07-30T01:21:15.282Z,14.70
2023-07-30T01:23:06.425Z,12.30
2023-07-30T01:24:57.825Z,15.40
2023-07-30T01:27:08.443Z,11.50
2023-07-30T01:29:02.705Z,14.50
2023-07-30T01:30:55.956Z,15.90
2023-07-30T01:32:50.504Z,17.20
2023-07-30T01:34:42.673Z,13.60
2023-07-30T01:36:34.532Z,15.80
2023-07-30T01:38:27.407Z,11.40
2023-07-30T01:40:19.004Z,10.40
2023-07-30T01:42:13.176Z,12.10
2023-07-30T01:44:04.628Z,9.50
2023-07-30T01:45:56.318Z,8.90
2023-07-30T01:47:48.049Z,6.40
2023-07-30T01:49:39.699Z,8.00
2023-07-30T01:51:31.477Z,7.40
2023-07-30T01:53:23.271Z,8.20
2023-07-30T01:55:14.724Z,8.00
2023-07-30T01:57:05.802Z,10.70
2023-07-30T01:58:57.576Z,9.50
2023-07-30T02:00:49.281Z,9.30
2023-07-30T02:02:41.005Z,11.10
2023-07-30T02:04:32.613Z,11.40
2023-07-30T02:06:23.855Z,11.50
2023-07-30T02:08:17.192Z,10.90
2023-07-30T02:10:08.728Z,11.70
2023-07-30T02:12:00.241Z,11.00
2023-07-30T02:13:52.035Z,11.30
2023-07-30T02:15:43.975Z,7.10
2023-07-30T02:17:36.000Z,9.30
2023-07-30T02:19:27.552Z,8.30
2023-07-30T02:21:18.685Z,8.50
2023-07-30T02:23:10.107Z,7.90
2023-07-30T02:25:01.714Z,5.90
2023-07-30T02:26:53.451Z,8.30
2023-07-30T02:28:45.141Z,8.20
2023-07-30T02:30:36.863Z,6.80
2023-07-30T02:32:28.122Z,6.50
2023-07-30T02:34:20.236Z,6.30
2023-07-30T02:36:11.499Z,4.50
2023-07-30T02:38:02.886Z,3.10
2023-07-30T02:39:54.599Z,2.70
2023-07-30T02:41:46.230Z,2.20
2023-07-30T02:43:37.641Z,2.50
2023-07-30T02:45:28.761Z,2.30
2023-07-30T02:47:20.182Z,2.50
2023-07-30T02:49:11.926Z,2.20
2023-07-30T02:51:03.656Z,1.90
2023-07-30T02:52:55.171Z,1.90
2023-07-30T02:54:46.549Z,2.00
2023-07-30T02:56:38.253Z,2.20
2023-07-30T02:58:29.771Z,1.90
2023-07-30T03:00:20.900Z,2.10
2023-07-30T03:02:12.502Z,1.70
2023-07-30T03:04:05.761Z,2.00
2023-07-30T03:05:57.284Z,2.00
2023-07-30T03:07:48.427Z,1.80
2023-07-30T03:09:40.065Z,1.60
2023-07-30T03:11:31.166Z,2.10
2023-07-30T03:13:22.908Z,2.10
2023-07-30T03:15:14.355Z,2.20
2023-07-30T03:17:06.233Z,1.50
2023-07-30T03:20:49.335Z,1.60
2023-07-30T03:22:40.487Z,1.90
2023-07-30T03:24:32.072Z,1.90
2023-07-30T03:26:23.775Z,1.80
2023-07-30T03:28:15.060Z,1.90
2023-07-30T03:30:07.153Z,1.70
2023-07-30T03:31:58.737Z,1.80
2023-07-30T03:33:49.960Z,1.70
2023-07-30T03:35:41.677Z,1.80
2023-07-30T03:37:33.175Z,1.80
2023-07-30T03:39:24.396Z,1.80
2023-07-30T03:41:15.650Z,2.20
2023-07-30T03:43:07.343Z,2.10
2023-07-30T03:44:59.084Z,2.10
2023-07-30T03:46:50.820Z,2.00
2023-07-30T03:48:42.451Z,2.20
2023-07-30T03:50:33.735Z,2.20
2023-07-30T03:52:25.420Z,1.80
2023-07-30T03:54:16.999Z,2.10
2023-07-30T03:56:08.361Z,3.10
2023-07-30T03:57:59.736Z,2.80
2023-07-30T03:59:51.456Z,2.50
2023-07-30T04:01:42.649Z,3.50
2023-07-30T04:03:34.303Z,3.20
2023-07-30T04:05:25.819Z,2.80
2023-07-30T04:07:17.396Z,2.70
2023-07-30T04:09:09.313Z,2.50
2023-07-30T04:11:00.447Z,2.10
2023-07-30T04:12:52.169Z,2.40
2023-07-30T04:14:43.319Z,2.00
2023-07-30T04:16:35.209Z,2.30
2023-07-30T04:18:26.679Z,2.40
2023-07-30T04:20:19.169Z,2.20
2023-07-30T04:22:10.657Z,2.20
2023-07-30T04:24:02.312Z,2.10
2023-07-30T04:25:53.832Z,2.10
2023-07-30T04:27:45.293Z,2.00
2023-07-30T04:29:36.663Z,2.30
2023-07-30T04:31:28.053Z,3.50
2023-07-30T04:33:19.663Z,2.20
2023-07-30T04:35:10.843Z,2.50
2023-07-30T04:37:03.804Z,2.60
2023-07-30T04:38:55.558Z,2.30
2023-07-30T04:40:47.098Z,2.50
2023-07-30T04:42:38.635Z,1.90
2023-07-30T04:44:30.218Z,2.80
2023-07-30T04:46:21.366Z,2.10
2023-07-30T04:48:13.082Z,2.40
2023-07-30T04:50:05.134Z,3.20
2023-07-30T04:51:56.702Z,3.10
2023-07-30T04:53:48.285Z,2.60
2023-07-30T04:55:39.970Z,3.00
2023-07-30T04:57:31.581Z,3.20
2023-07-30T04:59:22.882Z,4.10
2023-07-30T05:01:14.614Z,3.90
2023-07-30T05:03:06.446Z,4.30
2023-07-30T05:04:58.064Z,4.40
2023-07-30T05:06:49.940Z,4.10
2023-07-30T05:08:41.695Z,4.40
2023-07-30T05:10:33.401Z,4.80
2023-07-30T05:12:24.933Z,4.70
2023-07-30T05:14:16.396Z,4.40
2023-07-30T05:16:08.173Z,3.20
2023-07-30T05:17:59.845Z,3.00
2023-07-30T05:19:51.521Z,2.60
2023-07-30T05:21:42.893Z,2.50
2023-07-30T05:23:34.457Z,2.10
2023-07-30T05:25:25.595Z,2.10
2023-07-30T05:27:16.677Z,2.80
2023-07-30T05:29:08.399Z,2.40
2023-07-30T05:30:59.968Z,2.80
2023-07-30T05:32:51.567Z,2.10
2023-07-30T05:34:43.476Z,2.20
2023-07-30T05:36:34.697Z,2.30
2023-07-30T05:38:26.162Z,2.50
2023-07-30T05:40:17.819Z,2.50
2023-07-30T05:42:09.219Z,2.40
2023-07-30T05:44:00.505Z,1.90
2023-07-30T05:45:52.184Z,2.20
2023-07-30T05:47:44.032Z,2.00
2023-07-30T05:49:35.701Z,2.10
2023-07-30T05:51:27.021Z,2.00
2023-07-30T05:53:18.489Z,2.10
2023-07-30T05:55:10.250Z,1.60
2023-07-30T05:57:01.427Z,1.90
2023-07-30T05:58:52.587Z,1.90
2023-07-30T06:00:44.318Z,1.80
2023-07-30T06:02:35.709Z,2.30
2023-07-30T06:04:26.817Z,2.00
2023-07-30T06:06:18.142Z,1.80
2023-07-30T06:08:10.244Z,1.60
2023-07-30T06:10:01.987Z,2.20
2023-07-30T06:11:53.290Z,2.20
2023-07-30T06:13:44.644Z,2.00
2023-07-30T06:15:36.498Z,2.20
2023-07-30T06:17:28.328Z,1.70
2023-07-30T06:19:19.738Z,2.00
2023-07-30T06:21:11.326Z,1.70
2023-07-30T06:23:02.975Z,1.90
2023-07-30T06:24:55.049Z,1.90
2023-07-30T06:26:46.550Z,1.90
2023-07-30T06:28:37.898Z,1.90
2023-07-30T06:30:29.304Z,2.00
2023-07-30T06:32:20.586Z,2.30
2023-07-30T06:34:11.661Z,1.50
2023-07-30T06:36:03.065Z,2.70
2023-07-30T06:37:54.156Z,1.70
2023-07-30T06:39:45.323Z,2.00
2023-07-30T06:41:37.054Z,1.90
2023-07-30T06:45:20.070Z,2.30
2023-07-30T06:47:11.184Z,2.10
2023-07-30T06:49:02.514Z,2.30
2023-07-30T06:50:53.906Z,2.30
2023-07-30T06:52:45.572Z,2.10
2023-07-30T06:54:39.687Z,2.00
2023-07-30T06:56:31.330Z,2.00
2023-07-30T06:58:22.859Z,2.60
2023-07-30T07:00:19.963Z,2.70
2023-07-30T07:02:11.471Z,2.30
2023-07-30T07:04:03.315Z,2.40
2023-07-30T07:05:57.272Z,2.10
2023-07-30T07:07:49.709Z,2.70
2023-07-30T07:09:41.317Z,2.20
2023-07-30T07:11:32.648Z,1.80
2023-07-30T07:13:24.273Z,2.10
2023-07-30T07:15:15.430Z,2.50
2023-07-30T07:17:07.030Z,2.40
2023-07-30T07:18:58.718Z,1.60
2023-07-30T07:20:50.443Z,2.40
2023-07-30T07:22:41.808Z,2.50
2023-07-30T07:24:33.678Z,2.50
2023-07-30T07:26:25.790Z,2.40
2023-07-30T07:28:17.711Z,2.20
2023-07-30T07:30:09.979Z,1.90
2023-07-30T07:33:52.944Z,2.20
2023-07-30T07:35:44.552Z,2.00
2023-07-30T07:37:35.963Z,2.50
2023-07-30T07:39:27.524Z,1.90
2023-07-30T07:41:19.353Z,1.80
2023-07-30T07:43:10.850Z,8.20
2023-07-30T07:45:02.540Z,2.30
2023-07-30T07:46:54.166Z,2.30
2023-07-30T07:50:37.449Z,2.00
2023-07-30T07:52:28.937Z,2.10
2023-07-30T07:54:20.530Z,1.80
2023-07-30T07:56:11.721Z,1.70
2023-07-30T07:58:03.216Z,2.10
2023-07-30T07:59:55.032Z,2.00
2023-07-30T08:01:46.662Z,1.60
2023-07-30T08:03:38.165Z,1.70
2023-07-30T08:05:29.718Z,1.70
2023-07-30T08:07:20.808Z,2.00
2023-07-30T08:09:12.080Z,2.50
2023-07-30T08:11:08.098Z,2.10
2023-07-30T08:12:59.412Z,2.00
2023-07-30T08:14:51.674Z,3.30
2023-07-30T08:16:43.437Z,2.00
2023-07-30T08:18:34.678Z,2.10
2023-07-30T08:20:25.834Z,1.80
2023-07-30T08:22:16.862Z,2.50
2023-07-30T08:24:08.503Z,1.80
2023-07-30T08:25:59.851Z,1.50
2023-07-30T08:27:51.662Z,1.70
2023-07-30T08:29:43.184Z,2.30
2023-07-30T08:31:34.968Z,2.00
2023-07-30T08:33:27.514Z,2.10
2023-07-30T08:35:18.851Z,2.20
2023-07-30T08:37:10.500Z,1.60
2023-07-30T08:39:03.292Z,1.60
2023-07-30T08:40:54.491Z,1.90
2023-07-30T08:42:46.211Z,1.80
2023-07-30T08:44:37.590Z,2.00
2023-07-30T08:46:29.016Z,1.80
2023-07-30T08:48:20.681Z,1.80
2023-07-30T08:50:12.369Z,1.80
2023-07-30T08:52:04.969Z,1.60
2023-07-30T08:53:58.657Z,1.70
2023-07-30T08:55:49.769Z,1.60
2023-07-30T08:57:42.410Z,1.60
2023-07-30T08:59:51.291Z,1.50
2023-07-30T09:01:45.116Z,1.90
2023-07-30T09:03:39.708Z,2.00
2023-07-30T09:05:31.773Z,1.60
2023-07-30T09:09:17.540Z,1.70
2023-07-30T09:11:09.834Z,1.30
2023-07-30T09:13:03.921Z,1.70
2023-07-30T09:14:55.519Z,1.40
2023-07-30T09:16:47.283Z,1.40
2023-07-30T09:18:43.085Z,1.80
2023-07-30T09:20:41.379Z,1.70
2023-07-30T09:22:34.807Z,1.50
2023-07-30T09:24:26.728Z,1.30
2023-07-30T09:26:18.143Z,2.10
2023-07-30T09:28:09.668Z,2.00
2023-07-30T09:30:02.685Z,1.50
2023-07-30T09:31:55.744Z,1.70
2023-07-30T09:33:47.478Z,1.70
2023-07-30T09:35:40.481Z,1.60
2023-07-30T09:37:32.199Z,1.30
2023-07-30T09:39:25.952Z,2.00
2023-07-30T09:41:17.640Z,1.80
2023-07-30T09:43:10.314Z,1.50
2023-07-30T09:45:02.304Z,1.50
2023-07-30T09:46:53.302Z,1.50
2023-07-30T09:48:44.577Z,1.50
2023-07-30T09:50:39.238Z,1.70
2023-07-30T09:52:31.145Z,1.50
2023-07-30T09:54:23.420Z,1.80
2023-07-30T09:56:15.071Z,1.50
2023-07-30T09:58:07.021Z,1.80
2023-07-30T10:00:00.235Z,1.60
2023-07-30T10:01:57.055Z,1.80
2023-07-30T10:03:49.794Z,1.60
2023-07-30T10:05:41.500Z,1.50
2023-07-30T10:07:34.969Z,2.70
2023-07-30T10:09:30.173Z,6.50
2023-07-30T10:11:21.645Z,1.50
2023-07-30T10:13:13.337Z,1.50
2023-07-30T10:15:07.814Z,1.50
2023-07-30T10:17:01.883Z,1.50
2023-07-30T10:18:58.913Z,1.80
2023-07-30T10:20:56.075Z,1.20
2023-07-30T10:22:47.609Z,1.50
2023-07-30T10:24:42.636Z,1.30
2023-07-30T10:26:36.748Z,1.80
2023-07-30T10:28:33.507Z,1.60
2023-07-30T10:30:32.362Z,1.50
2023-07-30T10:32:24.140Z,1.40
2023-07-30T10:34:16.712Z,1.10
2023-07-30T10:36:08.153Z,1.40
2023-07-30T10:37:59.844Z,1.60
2023-07-30T10:39:51.596Z,1.50
2023-07-30T10:41:55.301Z,1.50
2023-07-30T10:43:51.376Z,1.40
2023-07-30T10:45:52.403Z,2.30
2023-07-30T10:47:44.201Z,2.00
2023-07-30T10:49:39.873Z,1.30
2023-07-30T10:51:32.824Z,1.40
2023-07-30T10:53:27.063Z,1.40
2023-07-30T10:55:18.583Z,1.50
2023-07-30T10:57:09.921Z,1.50
2023-07-30T10:59:01.081Z,1.20
2023-07-30T11:00:52.473Z,1.40
2023-07-30T11:02:44.312Z,1.50
2023-07-30T11:06:28.310Z,1.50
2023-07-30T11:08:19.592Z,1.30
2023-07-30T11:10:11.245Z,1.70
2023-07-30T11:12:03.268Z,1.80
2023-07-30T11:13:54.738Z,1.30
2023-07-30T11:15:46.568Z,1.50
2023-07-30T11:17:38.146Z,1.40
2023-07-30T11:19:30.740Z,1.50
2023-07-30T11:21:22.289Z,1.30
2023-07-30T11:23:20.413Z,1.50
2023-07-30T11:25:18.128Z,1.30
2023-07-30T11:27:09.588Z,1.30
2023-07-30T11:29:01.149Z,1.40
2023-07-30T11:30:52.526Z,1.40
2023-07-30T11:32:46.015Z,1.60
2023-07-30T11:34:40.222Z,1.60
2023-07-30T11:36:31.647Z,1.40
2023-07-30T11:38:26.797Z,1.30
2023-07-30T11:40:18.194Z,1.40
2023-07-30T11:42:09.825Z,1.40
2023-07-30T11:44:01.581Z,2.10
2023-07-30T11:46:13.315Z,1.60
2023-07-30T11:48:12.362Z,1.60
2023-07-30T11:50:04.230Z,1.80
2023-07-30T11:54:20.834Z,1.50
2023-07-30T11:56:18.106Z,2.00
2023-07-30T11:58:13.341Z,1.40
2023-07-30T12:00:05.403Z,2.00
2023-07-30T12:01:57.038Z,1.60
2023-07-30T12:03:48.683Z,1.60
2023-07-30T12:05:40.419Z,1.80
2023-07-30T12:07:33.806Z,1.80
2023-07-30T12:09:28.834Z,1.90
2023-07-30T12:11:23.158Z,2.00
2023-07-30T12:13:16.983Z,1.80
2023-07-30T12:15:12.599Z,1.70
2023-07-30T12:17:04.660Z,1.50
2023-07-30T12:18:56.859Z,1.50
2023-07-30T12:20:48.863Z,1.70
2023-07-30T12:22:40.536Z,1.30
2023-07-30T12:24:32.363Z,1.30
2023-07-30T12:26:24.035Z,1.60
2023-07-30T12:28:15.622Z,1.40
2023-07-30T12:30:07.964Z,1.80
2023-07-30T12:32:01.486Z,1.70
2023-07-30T12:33:56.344Z,1.50
2023-07-30T12:35:48.084Z,1.50
2023-07-30T12:37:39.713Z,1.60
2023-07-30T12:39:31.048Z,1.30
2023-07-30T12:41:26.992Z,1.30
2023-07-30T12:43:20.269Z,1.60
2023-07-30T12:45:12.256Z,1.30
2023-07-30T12:47:04.407Z,1.20
2023-07-30T12:48:55.597Z,1.50
2023-07-30T12:50:47.335Z,1.80
2023-07-30T12:52:39.202Z,1.80
2023-07-30T12:54:30.436Z,1.60
2023-07-30T12:56:21.986Z,1.60
2023-07-30T12:58:13.364Z,1.40
2023-07-30T13:00:05.959Z,1.50
2023-07-30T13:01:57.799Z,1.50
2023-07-30T13:03:50.338Z,2.00
2023-07-30T13:05:41.635Z,1.70
2023-07-30T13:07:32.798Z,1.60
2023-07-30T13:09:24.158Z,1.10
2023-07-30T13:11:15.589Z,1.30
2023-07-30T13:13:06.765Z,1.20
2023-07-30T13:14:57.967Z,1.60
2023-07-30T13:16:49.346Z,1.50
2023-07-30T13:18:41.135Z,1.60
2023-07-30T13:20:33.360Z,1.40
2023-07-30T13:22:24.842Z,2.00
2023-07-30T13:24:15.910Z,1.40
2023-07-30T13:26:07.101Z,1.60
2023-07-30T13:27:58.339Z,1.70
2023-07-30T13:29:50.246Z,2.20
2023-07-30T13:31:42.265Z,1.90
2023-07-30T13:33:34.106Z,2.00
2023-07-30T13:35:25.593Z,1.70
2023-07-30T13:37:16.811Z,2.20
2023-07-30T13:39:08.056Z,2.20
2023-07-30T13:40:59.450Z,1.10
2023-07-30T13:42:50.987Z,1.30
2023-07-30T13:44:43.263Z,1.60
2023-07-30T13:46:35.215Z,1.30
2023-07-30T13:48:27.057Z,1.80
2023-07-30T13:50:18.217Z,1.50
2023-07-30T13:52:09.739Z,1.70
2023-07-30T13:54:01.382Z,1.60
2023-07-30T13:55:53.384Z,1.70
2023-07-30T13:57:44.665Z,2.30
2023-07-30T13:59:35.787Z,1.90
2023-07-30T14:01:27.474Z,1.90
2023-07-30T14:03:18.643Z,1.60
2023-07-30T14:05:11.549Z,1.70
2023-07-30T14:07:02.797Z,1.60
2023-07-30T14:08:54.553Z,1.70
2023-07-30T14:10:46.368Z,1.30
2023-07-30T14:12:37.415Z,1.60
2023-07-30T14:14:29.097Z,1.80
2023-07-30T14:16:20.422Z,1.20
2023-07-30T14:18:12.064Z,1.60
2023-07-30T14:20:03.675Z,1.20
2023-07-30T14:21:55.206Z,1.60
2023-07-30T14:23:46.288Z,1.50
2023-07-30T14:25:38.221Z,1.80
2023-07-30T14:27:29.670Z,1.40
2023-07-30T14:29:21.267Z,1.60
2023-07-30T14:31:12.885Z,1.70
2023-07-30T14:33:04.749Z,1.60
2023-07-30T14:34:56.344Z,1.40
2023-07-30T14:36:47.993Z,1.30
2023-07-30T14:38:39.744Z,1.40
2023-07-30T14:40:31.992Z,1.60
2023-07-30T14:42:23.482Z,1.30
2023-07-30T14:44:14.895Z,1.10
2023-07-30T14:46:07.970Z,1.20
2023-07-30T14:47:59.585Z,1.50
2023-07-30T14:49:52.748Z,1.00
2023-07-30T14:51:44.473Z,1.00
2023-07-30T14:53:36.171Z,0.90
2023-07-30T14:55:27.815Z,0.90
2023-07-30T14:57:19.816Z,1.50
2023-07-30T14:59:12.022Z,1.70
2023-07-30T15:01:03.401Z,2.00
2023-07-30T15:02:55.727Z,1.70
2023-07-30T15:06:39.175Z,2.20
2023-07-30T15:08:33.358Z,1.80
2023-07-30T15:10:24.855Z,1.80
2023-07-30T15:12:16.570Z,2.10
2023-07-30T15:14:08.196Z,2.30
2023-07-30T15:15:59.336Z,2.50
2023-07-30T15:17:50.941Z,2.10
2023-07-30T15:19:42.620Z,2.00
2023-07-30T15:21:36.563Z,1.70
2023-07-30T15:23:28.219Z,1.50
2023-07-30T15:25:19.963Z,1.20
2023-07-30T15:27:11.491Z,1.80
2023-07-30T15:29:03.092Z,2.10
2023-07-30T15:30:54.758Z,1.10
2023-07-30T15:32:46.224Z,1.40
2023-07-30T15:34:37.959Z,0.80
2023-07-30T15:36:29.572Z,1.40
2023-07-30T15:38:21.211Z,1.40
2023-07-30T15:40:13.610Z,1.30
2023-07-30T15:42:05.441Z,1.40
2023-07-30T15:43:57.036Z,1.50
2023-07-30T15:45:48.694Z,1.50
2023-07-30T15:47:40.987Z,1.40
2023-07-30T15:51:23.940Z,1.30
2023-07-30T15:53:15.213Z,1.10
2023-07-30T15:55:06.752Z,1.50
2023-07-30T15:56:58.406Z,5.20
2023-07-30T15:58:49.869Z,1.50
2023-07-30T16:00:41.524Z,1.30
2023-07-30T16:02:34.039Z,1.30
2023-07-30T16:04:26.210Z,1.40
2023-07-30T16:06:17.804Z,1.40
2023-07-30T16:08:09.548Z,1.30
2023-07-30T16:10:00.853Z,1.50
2023-07-30T16:11:52.327Z,1.40
2023-07-30T16:13:43.882Z,1.40
2023-07-30T16:15:36.508Z,1.50
2023-07-30T16:17:29.019Z,2.30
2023-07-30T16:19:20.261Z,5.50
2023-07-30T16:21:11.974Z,2.10
2023-07-30T16:23:03.422Z,2.30
2023-07-30T16:24:55.121Z,2.50
2023-07-30T16:26:46.628Z,2.40
2023-07-30T16:28:38.520Z,2.00
2023-07-30T16:30:31.155Z,2.30
2023-07-30T16:32:24.723Z,9.80
2023-07-30T16:34:16.638Z,8.60
2023-07-30T16:36:08.298Z,4.20
2023-07-30T16:37:59.507Z,1.60
2023-07-30T16:39:50.982Z,1.60
2023-07-30T16:41:42.408Z,1.80
2023-07-30T16:43:33.566Z,2.10
2023-07-30T16:45:25.377Z,1.00
2023-07-30T16:47:17.004Z,1.10
2023-07-30T16:49:09.900Z,1.30
2023-07-30T16:51:01.540Z,1.00
2023-07-30T16:52:53.127Z,1.30
2023-07-30T16:54:44.826Z,1.10
2023-07-30T16:56:36.791Z,1.30
2023-07-30T16:58:28.534Z,1.40
2023-07-30T17:00:20.848Z,1.20
2023-07-30T17:02:12.311Z,1.50
2023-07-30T17:04:03.742Z,1.10
2023-07-30T17:06:01.777Z,1.30
2023-07-30T17:07:53.399Z,1.40
2023-07-30T17:09:45.087Z,1.10
2023-07-30T17:11:39.455Z,1.20
2023-07-30T17:13:31.534Z,1.00
2023-07-30T17:17:14.773Z,1.00
2023-07-30T17:19:06.074Z,1.00
2023-07-30T17:20:58.680Z,1.00
2023-07-30T17:22:50.295Z,1.40
2023-07-30T17:24:41.997Z,1.40
2023-07-30T17:26:33.736Z,1.10
2023-07-30T17:28:26.509Z,1.10
2023-07-30T17:30:18.083Z,2.70
2023-07-30T17:32:09.903Z,2.20
2023-07-30T17:34:01.461Z,2.20
2023-07-30T17:35:53.081Z,1.80
2023-07-30T17:37:44.940Z,1.60
2023-07-30T17:39:37.350Z,1.30
2023-07-30T17:41:29.327Z,1.50
2023-07-30T17:43:20.560Z,1.10
2023-07-30T17:45:12.072Z,1.50
2023-07-30T17:47:04.044Z,1.50
2023-07-30T17:48:55.803Z,1.30
2023-07-30T17:50:48.373Z,1.20
2023-07-30T17:52:39.801Z,1.20
2023-07-30T17:54:31.194Z,1.20
2023-07-30T17:56:22.605Z,1.30
2023-07-30T17:58:13.959Z,1.30
2023-07-30T18:00:06.638Z,1.50
2023-07-30T18:01:58.783Z,1.40
2023-07-30T18:03:50.628Z,1.20
2023-07-30T18:05:48.190Z,1.50
2023-07-30T18:07:40.429Z,1.20
2023-07-30T18:09:31.891Z,1.40
2023-07-30T18:11:24.209Z,1.60
2023-07-30T18:13:16.178Z,1.40
2023-07-30T18:15:08.069Z,1.60
2023-07-30T18:16:59.111Z,1.50
2023-07-30T18:18:50.283Z,1.30
2023-07-30T18:20:42.303Z,1.40
2023-07-30T18:22:33.720Z,1.60
2023-07-30T18:24:25.230Z,1.50
2023-07-30T18:26:16.917Z,1.40
2023-07-30T18:28:08.317Z,13.50
2023-07-30T18:29:59.959Z,6.60
2023-07-30T18:31:51.349Z,2.50
2023-07-30T18:33:43.063Z,1.90
2023-07-30T18:35:34.564Z,1.60
2023-07-30T18:37:25.719Z,1.50
2023-07-30T18:39:17.354Z,1.40
2023-07-30T18:41:09.056Z,1.20
2023-07-30T18:43:00.383Z,1.60
2023-07-30T18:44:55.692Z,1.30
2023-07-30T18:46:47.409Z,1.90
2023-07-30T18:48:39.136Z,2.00
2023-07-30T18:50:32.219Z,1.80
2023-07-30T18:52:23.877Z,2.20
2023-07-30T18:54:15.317Z,2.10
2023-07-30T18:56:06.965Z,2.00
2023-07-30T18:57:58.206Z,2.50
2023-07-30T18:59:49.671Z,2.40
2023-07-30T19:01:41.747Z,2.00
2023-07-30T19:03:33.507Z,2.00
2023-07-30T19:05:25.138Z,1.80
2023-07-30T19:07:16.583Z,1.70
2023-07-30T19:09:08.358Z,2.10
2023-07-30T19:10:59.767Z,2.00
2023-07-30T19:12:51.291Z,1.70
2023-07-30T19:14:43.087Z,1.60
2023-07-30T19:16:34.344Z,3.10
2023-07-30T19:18:26.617Z,2.50
2023-07-30T19:20:17.795Z,1.80
2023-07-30T19:22:09.643Z,2.20
2023-07-30T19:24:01.703Z,2.10
2023-07-30T19:25:55.101Z,2.00
2023-07-30T19:27:47.047Z,2.50
2023-07-30T19:29:39.059Z,1.70
2023-07-30T19:31:30.903Z,1.90
2023-07-30T19:33:22.563Z,1.80
2023-07-30T19:35:14.028Z,1.50
2023-07-30T19:37:05.461Z,1.80
2023-07-30T19:38:58.936Z,1.60
2023-07-30T19:40:55.386Z,1.50
2023-07-30T19:42:47.056Z,1.50
2023-07-30T19:44:38.292Z,1.80
2023-07-30T19:46:30.077Z,1.40
2023-07-30T19:48:22.437Z,1.80
2023-07-30T19:50:20.937Z,4.40
2023-07-30T19:52:18.649Z,4.20
2023-07-30T19:54:12.582Z,2.00
2023-07-30T19:56:04.650Z,1.50
2023-07-30T19:57:59.357Z,1.80
2023-07-30T19:59:50.980Z,1.60
2023-07-30T20:01:42.731Z,1.60
2023-07-30T20:03:34.221Z,1.50
2023-07-30T20:05:25.888Z,1.20
2023-07-30T20:07:17.120Z,1.60
2023-07-30T20:09:08.366Z,1.70
2023-07-30T20:11:00.808Z,1.40
2023-07-30T20:12:51.988Z,1.40
2023-07-30T20:14:43.397Z,1.40
2023-07-30T20:16:35.203Z,1.50
2023-07-30T20:18:27.506Z,1.10
2023-07-30T20:20:19.710Z,1.40
2023-07-30T20:22:13.245Z,1.00
2023-07-30T20:24:06.711Z,1.10
2023-07-30T20:25:58.208Z,1.00
2023-07-30T20:27:49.398Z,1.20
2023-07-30T20:29:40.678Z,1.30
2023-07-30T20:31:37.400Z,1.30
2023-07-30T20:33:28.535Z,1.00
2023-07-30T20:35:20.033Z,1.30
2023-07-30T20:37:11.892Z,1.20
2023-07-30T20:39:03.722Z,1.50
2023-07-30T20:40:55.240Z,1.10
2023-07-30T20:42:46.445Z,1.30
2023-07-30T20:44:37.934Z,7.60
2023-07-30T20:46:29.229Z,5.50
2023-07-30T20:48:20.702Z,1.50
2023-07-30T20:50:17.271Z,7.30
2023-07-30T20:52:08.624Z,1.50
2023-07-30T20:54:00.092Z,1.30
2023-07-30T20:55:52.342Z,1.30
2023-07-30T20:57:44.028Z,1.50
2023-07-30T20:59:36.670Z,3.40
2023-07-30T21:01:28.500Z,5.30
2023-07-30T21:03:20.244Z,4.30
2023-07-30T21:05:12.278Z,2.20
2023-07-30T21:07:03.865Z,1.90
2023-07-30T21:08:55.435Z,1.70
2023-07-30T21:10:47.007Z,1.30
2023-07-30T21:12:40.011Z,1.60
2023-07-30T21:14:31.459Z,1.80
2023-07-30T21:16:23.297Z,3.20
2023-07-30T21:18:16.029Z,4.30
2023-07-30T21:20:08.380Z,4.90
2023-07-30T21:23:51.473Z,4.90
2023-07-30T21:25:43.140Z,3.00
2023-07-30T21:27:34.851Z,2.80
2023-07-30T21:29:26.312Z,1.80
2023-07-30T21:31:17.522Z,1.80
2023-07-30T21:33:09.226Z,1.60
2023-07-30T21:35:01.046Z,1.30
2023-07-30T21:36:52.197Z,1.50
2023-07-30T21:38:43.392Z,1.40
2023-07-30T21:40:35.200Z,1.20
2023-07-30T21:42:27.728Z,1.20
2023-07-30T21:44:19.371Z,1.70
2023-07-30T21:46:10.727Z,1.00
2023-07-30T21:48:02.071Z,1.20
2023-07-30T21:49:53.561Z,1.20
2023-07-30T21:51:45.163Z,1.10
2023-07-30T21:53:36.437Z,1.30
2023-07-30T21:55:27.907Z,1.40
2023-07-30T21:57:19.586Z,1.40
2023-07-30T21:59:11.051Z,1.30
2023-07-30T22:01:02.996Z,0.70
2023-07-30T22:02:58.821Z,1.10
2023-07-30T22:04:50.204Z,1.30
2023-07-30T22:06:41.809Z,1.20
2023-07-30T22:08:33.682Z,1.20
2023-07-30T22:10:25.355Z,1.10
2023-07-30T22:12:16.779Z,1.40
2023-07-30T22:14:08.516Z,1.00
2023-07-30T22:15:59.903Z,1.20
2023-07-30T22:17:51.278Z,1.40
2023-07-30T22:19:43.008Z,1.20
2023-07-30T22:21:34.465Z,1.50
2023-07-30T22:23:27.161Z,1.00
2023-07-30T22:25:18.806Z,1.10
2023-07-30T22:27:10.011Z,1.50
2023-07-30T22:29:01.645Z,1.40
2023-07-30T22:30:53.733Z,1.80
2023-07-30T22:32:45.279Z,1.50
2023-07-30T22:34:38.252Z,1.40
2023-07-30T22:36:29.724Z,1.40
2023-07-30T22:38:21.517Z,1.60
2023-07-30T22:40:12.805Z,1.40
2023-07-30T22:42:04.525Z,1.70
2023-07-30T22:43:57.488Z,1.80
2023-07-30T22:45:48.860Z,1.50
2023-07-30T22:47:40.654Z,1.40
2023-07-30T22:49:32.441Z,1.70
2023-07-30T22:51:23.655Z,1.80
2023-07-30T22:53:15.403Z,1.90
2023-07-30T22:55:07.399Z,1.90
2023-07-30T22:56:58.760Z,2.10
2023-07-30T22:58:50.149Z,1.80
2023-07-30T23:00:41.691Z,1.50
2023-07-30T23:02:33.435Z,1.80
2023-07-30T23:04:25.082Z,1.80
2023-07-30T23:06:16.186Z,1.90
2023-07-30T23:08:07.640Z,1.70
2023-07-30T23:09:59.167Z,1.80
2023-07-30T23:11:50.836Z,1.70
2023-07-30T23:13:42.377Z,2.10
2023-07-30T23:15:34.066Z,1.90
2023-07-30T23:17:25.781Z,1.90
2023-07-30T23:19:17.418Z,1.90
2023-07-30T23:21:09.046Z,1.90
2023-07-30T23:23:00.749Z,2.10
2023-07-30T23:24:52.482Z,1.80
2023-07-30T23:26:44.186Z,2.10
2023-07-30T23:28:35.552Z,2.00
2023-07-30T23:30:27.318Z,2.10
2023-07-30T23:32:19.057Z,1.90
2023-07-30T23:34:10.756Z,2.10
2023-07-30T23:36:08.765Z,2.00
2023-07-30T23:37:59.955Z,2.20
2023-07-30T23:39:52.982Z,1.90
2023-07-30T23:41:45.545Z,2.10
2023-07-30T23:43:37.067Z,1.90
2023-07-30T23:45:28.753Z,1.60
2023-07-30T23:47:19.975Z,2.00
2023-07-30T23:49:11.680Z,2.20
2023-07-30T23:51:05.734Z,1.80
2023-07-30T23:52:58.313Z,2.10
2023-07-30T23:54:49.824Z,2.10
2023-07-30T23:56:41.816Z,2.20
2023-07-30T23:58:33.210Z,2.30
